Time;durP1;ratioP1;P1;durP2;ratioP2;P2;SDS_P1;SDS_P2;PMS_P1;PMS_P2;Temp;Humidity;BMP_temperature;BMP_pressure;BME280_temperature;BME280_humidity;BME280_pressure;Samples;Min_cycle;Max_cycle;Signal;HPM_P1;HPM_P2
2022/06/16 00:02:13;;;;;;;7.60;3.40;;;;;;;16.26;60.57;101933.94;5054008;28;20103;-41
2022/06/16 00:04:38;;;;;;;6.72;3.30;;;;;;;16.23;60.71;101940.34;5053953;28;20037;-41
2022/06/16 00:07:04;;;;;;;8.88;3.58;;;;;;;16.25;60.91;101938.34;5054203;28;20119;-42
2022/06/16 00:09:29;;;;;;;6.65;3.60;;;;;;;16.22;61.12;101936.13;5053292;28;20079;-42
2022/06/16 00:11:55;;;;;;;8.38;3.50;;;;;;;16.14;61.44;101938.91;5054054;28;20032;-41
2022/06/16 00:14:23;;;;;;;8.55;3.72;;;;;;;15.97;61.83;101934.03;5054341;28;20032;-41
2022/06/16 00:16:48;;;;;;;6.82;3.65;;;;;;;15.76;62.56;101939.34;5035806;28;20029;-40
2022/06/16 00:19:14;;;;;;;7.18;3.58;;;;;;;15.64;62.87;101939.06;5053616;28;20557;-40
2022/06/16 00:21:39;;;;;;;7.15;3.58;;;;;;;15.60;63.25;101940.44;5053970;28;20504;-41
2022/06/16 00:24:05;;;;;;;7.93;3.78;;;;;;;15.64;63.32;101938.25;5053569;28;20024;-41
2022/06/16 00:26:30;;;;;;;7.25;3.75;;;;;;;15.62;63.34;101948.06;5053779;28;20016;-40
2022/06/16 00:28:56;;;;;;;6.88;3.63;;;;;;;15.50;63.25;101945.19;5053797;28;20375;-42
2022/06/16 00:31:23;;;;;;;5.22;3.50;;;;;;;15.52;63.67;101943.19;5035478;28;20378;-41
2022/06/16 00:33:49;;;;;;;7.82;3.67;;;;;;;15.58;63.92;101948.44;5053525;28;20052;-42
2022/06/16 00:36:15;;;;;;;8.32;3.88;;;;;;;15.53;63.68;101945.59;5053401;28;20128;-42
2022/06/16 00:38:41;;;;;;;6.85;3.60;;;;;;;15.57;63.91;101938.22;5053619;28;20403;-41
2022/06/16 00:41:07;;;;;;;10.98;3.55;;;;;;;15.54;63.80;101938.59;5053365;28;20029;-40
2022/06/16 00:43:33;;;;;;;6.90;4.00;;;;;;;15.36;63.73;101931.25;5053672;28;20450;-42
2022/06/16 00:46:01;;;;;;;6.45;3.85;;;;;;;15.15;64.22;101932.13;5053522;28;20107;-42
2022/06/16 00:48:38;;;;;;;6.38;3.60;;;;;;;15.07;64.64;101938.25;5053562;28;20016;-42
2022/06/16 00:51:06;;;;;;;6.95;3.80;;;;;;;15.25;64.70;101940.41;5053473;28;20112;-41
2022/06/16 00:53:32;;;;;;;9.32;3.80;;;;;;;15.26;64.59;101928.19;5053138;28;20430;-41
2022/06/16 00:55:58;;;;;;;7.70;3.80;;;;;;;15.19;65.01;101935.16;5053642;28;20163;-41
2022/06/16 00:58:26;;;;;;;9.32;3.67;;;;;;;15.26;64.76;101947.22;5052984;28;20119;-40
2022/06/16 01:00:52;;;;;;;6.75;3.95;;;;;;;15.22;65.18;101950.38;5053727;28;20039;-42
2022/06/16 01:04:51;;;;;;;5.25;3.67;;;;;;;15.19;65.06;101951.59;5053048;28;20031;-41
2022/06/16 01:06:16;;;;;;;5.78;3.60;;;;;;;15.10;64.87;101953.53;5053028;28;20029;-42
2022/06/16 01:08:42;;;;;;;5.82;3.60;;;;;;;15.12;65.56;101956.72;5054375;28;20032;-42
2022/06/16 01:13:41;;;;;;;10.63;4.13;;;;;;;15.04;65.15;101956.06;5057426;28;20455;-41
2022/06/16 01:14:01;;;;;;;7.68;3.45;;;;;;;14.79;66.25;101976.47;5028923;28;20064;-42
2022/06/16 01:16:31;;;;;;;7.65;3.40;;;;;;;14.68;66.52;101967.38;5057555;28;20036;-41
2022/06/16 01:19:03;;;;;;;7.75;3.72;;;;;;;14.71;66.41;101963.59;5057070;28;20058;-42
2022/06/16 01:21:49;;;;;;;6.85;3.90;;;;;;;14.75;66.42;101972.63;5056991;28;20039;-42
2022/06/16 01:24:33;;;;;;;11.32;3.75;;;;;;;14.73;66.22;101966.78;5057163;28;20031;-41
2022/06/16 01:27:16;;;;;;;8.73;3.75;;;;;;;14.50;67.22;101974.72;5057197;28;20104;-42
2022/06/16 01:30:12;;;;;;;6.90;3.83;;;;;;;14.29;67.75;101973.69;5057393;28;20100;-42
2022/06/16 01:33:00;;;;;;;8.57;3.75;;;;;;;14.35;68.00;101972.97;5030154;28;20048;-42
2022/06/16 01:36:03;;;;;;;6.70;3.60;;;;;;;14.40;68.27;101975.81;5057065;28;20020;-42
2022/06/16 01:38:51;;;;;;;6.15;3.60;;;;;;;14.29;67.95;101981.50;5056648;28;20124;-41
2022/06/16 01:41:34;;;;;;;7.18;3.70;;;;;;;14.33;68.01;101971.56;5056712;28;20032;-42
2022/06/16 01:44:16;;;;;;;8.20;3.90;;;;;;;14.26;68.52;101963.66;5057284;28;20456;-41
2022/06/16 01:46:45;;;;;;;7.97;3.80;;;;;;;14.34;67.83;101954.97;5057042;28;20028;-42
2022/06/16 01:49:19;;;;;;;7.68;3.92;;;;;;;14.31;67.29;101966.53;5056562;28;20028;-41
2022/06/16 01:51:51;;;;;;;8.30;3.95;;;;;;;14.36;67.94;101960.78;5056506;28;20025;-41
2022/06/16 01:54:32;;;;;;;7.00;4.03;;;;;;;14.31;68.04;101971.72;5056990;28;20029;-42
2022/06/16 01:57:10;;;;;;;7.47;4.03;;;;;;;14.02;69.12;101976.97;5056195;28;20049;-42
2022/06/16 01:59:46;;;;;;;8.07;3.67;;;;;;;13.84;70.15;101987.69;5056274;28;20041;-41
2022/06/16 02:02:16;;;;;;;9.45;3.65;;;;;;;13.64;70.35;101977.06;5056893;28;20017;-41
2022/06/16 02:04:45;;;;;;;8.57;3.97;;;;;;;13.59;70.85;101985.38;5056502;28;20073;-42
2022/06/16 02:07:17;;;;;;;6.97;4.15;;;;;;;13.73;70.70;101994.97;5056756;28;20367;-42
2022/06/16 02:09:49;;;;;;;6.45;4.00;;;;;;;13.80;70.25;101989.06;5056330;28;20035;-41
2022/06/16 02:15:18;;;;;;;6.78;4.20;;;;;;;13.79;70.88;101975.28;5056911;28;20044;-42
2022/06/16 02:17:43;;;;;;;7.97;4.03;;;;;;;13.68;71.23;101980.91;5038449;28;20037;-41
2022/06/16 02:20:09;;;;;;;9.13;4.05;;;;;;;13.63;71.50;101988.41;5037905;28;20025;-42
2022/06/16 02:22:35;;;;;;;6.68;4.50;;;;;;;13.63;70.88;101983.22;5055978;28;20044;-42
2022/06/16 02:25:00;;;;;;;9.48;4.20;;;;;;;13.57;71.35;101982.13;5055889;28;20032;-42
2022/06/16 02:27:26;;;;;;;6.82;4.18;;;;;;;13.43;72.43;101975.13;5055921;28;20071;-42
2022/06/16 02:29:51;;;;;;;8.73;4.47;;;;;;;13.41;72.73;101970.13;5055771;28;20025;-42
2022/06/16 02:32:19;;;;;;;6.90;4.03;;;;;;;13.44;72.21;101984.56;5055640;28;20036;-42
2022/06/16 02:35:01;;;;;;;6.93;3.80;;;;;;;13.28;72.54;101975.91;5056059;28;20029;-42
2022/06/16 02:37:26;;;;;;;9.80;4.28;;;;;;;13.19;72.89;101976.94;5037805;28;20083;-42
2022/06/16 02:40:10;;;;;;;9.65;4.13;;;;;;;13.05;73.12;101994.06;5055690;28;20020;-40
2022/06/16 02:43:03;;;;;;;8.60;4.47;;;;;;;13.14;73.25;101992.22;5056026;28;20025;-42
2022/06/16 02:45:42;;;;;;;8.13;4.07;;;;;;;13.17;71.94;101989.25;5055827;28;20099;-42
2022/06/16 02:48:14;;;;;;;7.70;4.28;;;;;;;12.96;73.30;102000.28;5055730;28;20305;-42
2022/06/16 02:50:47;;;;;;;8.02;4.30;;;;;;;12.76;73.86;102007.72;5037509;28;20029;-41
2022/06/16 02:53:30;;;;;;;7.28;4.47;;;;;;;12.77;73.59;102003.31;5055631;28;20102;-41
2022/06/16 02:56:00;;;;;;;;;;;;;;;12.94;73.55;101997.06;5055974;28;20100;-42
2022/06/16 02:58:27;;;;;;;8.05;4.13;;;;;;;13.04;72.67;101999.44;5055085;28;19916;-40
2022/06/16 03:00:56;;;;;;;7.47;4.30;;;;;;;12.91;73.38;102012.97;5055202;28;20099;-42
2022/06/16 03:03:28;;;;;;;8.38;4.32;;;;;;;12.82;73.68;102019.19;5055201;28;20025;-42
2022/06/16 03:05:55;;;;;;;12.98;4.32;;;;;;;12.71;74.26;102022.97;5055425;28;20029;-41
2022/06/16 03:08:22;;;;;;;9.13;4.13;;;;;;;12.62;74.88;102026.59;5055390;28;20017;-41
2022/06/16 03:10:50;;;;;;;8.20;4.28;;;;;;;12.56;74.94;102025.47;5055630;28;20017;-41
2022/06/16 03:13:16;;;;;;;6.93;4.65;;;;;;;12.53;75.45;102038.78;5055310;28;20049;-42
2022/06/16 03:15:42;;;;;;;6.45;4.80;;;;;;;12.51;75.03;102024.38;5054918;28;20063;-41
2022/06/16 03:18:07;;;;;;;7.47;4.68;;;;;;;12.65;74.73;102041.81;5054854;28;20025;-42
2022/06/16 03:20:33;;;;;;;9.23;4.65;;;;;;;12.60;74.46;102044.94;5055177;28;20504;-41
2022/06/16 03:22:58;;;;;;;10.50;4.65;;;;;;;12.58;75.04;102044.28;5055152;28;20103;-41
2022/06/16 03:25:24;;;;;;;8.20;4.50;;;;;;;12.66;75.07;102038.25;5054782;28;20395;-41
2022/06/16 03:27:49;;;;;;;7.47;4.55;;;;;;;12.62;75.08;102030.00;5054709;28;20059;-42
2022/06/16 03:30:15;;;;;;;9.77;4.75;;;;;;;12.79;74.66;102035.91;5054719;28;20024;-41
2022/06/16 03:32:40;;;;;;;7.70;4.43;;;;;;;12.74;75.03;102039.97;5054563;28;20017;-40
2022/06/16 03:35:06;;;;;;;6.50;4.40;;;;;;;12.80;74.54;102047.91;5054872;28;20142;-41
2022/06/16 03:37:31;;;;;;;8.88;4.47;;;;;;;12.94;73.87;102043.75;5054384;28;20024;-41
2022/06/16 03:39:57;;;;;;;8.10;4.18;;;;;;;12.97;73.23;102021.84;5054743;28;20510;-41
2022/06/16 03:42:22;;;;;;;8.60;4.80;;;;;;;13.22;72.37;102030.28;5054446;28;20021;-41
2022/06/16 03:44:47;;;;;;;6.82;4.55;;;;;;;13.30;72.56;102038.84;5054951;28;20021;-41
2022/06/16 03:47:12;;;;;;;6.68;4.40;;;;;;;13.20;72.38;102040.81;5054578;28;20045;-42
2022/06/16 03:49:38;;;;;;;8.27;4.40;;;;;;;13.28;72.65;102040.00;5036429;28;20395;-41
2022/06/16 03:52:03;;;;;;;8.10;4.15;;;;;;;13.45;72.44;102041.47;5054214;28;20036;-41
2022/06/16 03:54:29;;;;;;;10.57;4.90;;;;;;;13.49;71.49;102034.16;5054424;28;20032;-41
2022/06/16 03:56:54;;;;;;;8.35;4.30;;;;;;;13.65;71.18;102034.00;5054193;28;20047;-42
2022/06/16 03:59:21;;;;;;;9.43;4.25;;;;;;;13.66;70.78;102040.00;5054356;28;20052;-41
2022/06/16 04:01:47;;;;;;;8.02;4.18;;;;;;;13.66;70.68;102033.00;5036425;28;20021;-40
2022/06/16 04:04:12;;;;;;;8.38;4.38;;;;;;;13.66;70.70;102035.63;5053976;28;20444;-42
2022/06/16 04:06:37;;;;;;;8.77;4.50;;;;;;;13.63;70.35;102017.78;5054303;28;20021;-42
2022/06/16 04:09:04;;;;;;;7.50;4.32;;;;;;;13.85;70.14;102036.91;5054521;28;20055;-41
2022/06/16 04:11:32;;;;;;;11.63;4.30;;;;;;;13.86;70.70;102041.09;5054365;28;20025;-41
2022/06/16 04:14:07;;;;;;;7.88;4.32;;;;;;;13.85;70.25;102055.09;5054117;28;20047;-41
2022/06/16 04:16:40;;;;;;;9.00;4.30;;;;;;;13.90;69.98;102059.78;5053828;28;20493;-41
2022/06/16 04:19:06;;;;;;;10.75;4.20;;;;;;;13.73;70.92;102059.13;5053798;28;20147;-42
2022/06/16 04:21:32;;;;;;;11.20;4.50;;;;;;;13.69;71.37;102070.81;5054285;28;20029;-42
2022/06/16 04:23:58;;;;;;;7.38;4.70;;;;;;;13.70;71.30;102069.88;5053866;28;20039;-42
2022/06/16 04:26:24;;;;;;;7.07;4.38;;;;;;;13.82;70.01;102083.22;5036161;28;20391;-41
2022/06/16 04:28:50;;;;;;;9.18;4.80;;;;;;;13.91;69.34;102090.75;5035852;28;20434;-42
2022/06/16 04:31:16;;;;;;;8.77;4.53;;;;;;;14.08;69.41;102094.00;5035672;28;20052;-44
2022/06/16 04:33:41;;;;;;;8.02;4.10;;;;;;;14.16;69.08;102091.34;5053783;28;20464;-42
2022/06/16 04:36:08;;;;;;;8.65;4.43;;;;;;;14.20;68.51;102102.19;5053570;28;20378;-42
2022/06/16 04:38:34;;;;;;;8.55;4.32;;;;;;;14.34;69.10;102111.78;5053621;28;20025;-42
2022/06/16 04:40:59;;;;;;;9.43;4.30;;;;;;;14.38;68.21;102101.81;5053699;28;20060;-46
2022/06/16 04:43:25;;;;;;;6.28;3.60;;;;;;;14.43;67.62;102108.09;5034641;28;20203;-41
2022/06/16 04:45:51;;;;;;;9.88;4.00;;;;;;;14.59;67.69;102095.94;5053645;28;20025;-43
2022/06/16 04:48:16;;;;;;;8.38;3.50;;;;;;;14.63;67.48;102107.59;5053644;28;20096;-41
2022/06/16 04:50:42;;;;;;;5.90;3.60;;;;;;;14.72;66.95;102098.69;5053305;28;20021;-42
2022/06/16 04:53:07;;;;;;;5.45;3.60;;;;;;;14.89;66.50;102109.69;5053301;28;20032;-42
2022/06/16 04:55:34;;;;;;;6.07;3.45;;;;;;;14.77;67.69;102119.78;5053272;28;20446;-42
2022/06/16 04:57:59;;;;;;;6.60;3.45;;;;;;;14.69;67.26;102119.06;5053031;28;20045;-41
2022/06/16 05:00:25;;;;;;;9.27;3.40;;;;;;;14.70;67.44;102124.06;5053447;28;20387;-41
2022/06/16 05:02:50;;;;;;;8.57;3.53;;;;;;;14.75;66.34;102123.53;5053471;28;20024;-42
2022/06/16 05:05:16;;;;;;;7.97;3.53;;;;;;;14.94;67.30;102135.19;5053624;28;20025;-42
2022/06/16 05:07:41;;;;;;;7.40;3.60;;;;;;;15.04;68.38;102128.69;5053391;28;20100;-43
2022/06/16 05:10:08;;;;;;;10.20;3.67;;;;;;;15.05;67.33;102132.91;5053378;28;20032;-42
2022/06/16 05:12:33;;;;;;;6.00;3.47;;;;;;;15.26;67.53;102131.31;5053333;28;20368;-42
2022/06/16 05:14:58;;;;;;;6.75;3.60;;;;;;;16.07;64.52;102137.06;5053665;28;20029;-42
2022/06/16 05:17:24;;;;;;;5.57;3.55;;;;;;;15.37;65.86;102137.84;5052898;28;20468;-42
2022/06/16 05:19:49;;;;;;;7.43;3.60;;;;;;;15.14;66.20;102144.03;5035218;28;20025;-41
2022/06/16 05:22:15;;;;;;;8.10;3.47;;;;;;;15.33;66.07;102153.00;5035174;28;20075;-41
2022/06/16 05:24:41;;;;;;;7.28;3.50;;;;;;;15.38;65.01;102157.69;5053023;28;20428;-42
2022/06/16 05:27:07;;;;;;;6.07;3.78;;;;;;;15.69;64.66;102157.41;5035170;28;20075;-41
2022/06/16 05:29:33;;;;;;;6.35;3.80;;;;;;;17.59;58.07;102165.59;5053535;28;20025;-42
2022/06/16 05:31:58;;;;;;;9.60;3.40;;;;;;;20.79;48.85;102163.88;5034900;28;20028;-42
2022/06/16 05:34:23;;;;;;;5.85;3.40;;;;;;;24.36;41.58;102161.47;5052908;28;20376;-42
2022/06/16 05:36:49;;;;;;;8.00;2.70;;;;;;;26.20;34.59;102165.72;5053270;28;20033;-42
2022/06/16 05:39:14;;;;;;;5.22;2.65;;;;;;;26.90;33.59;102166.19;5052659;28;20071;-42
2022/06/16 05:41:41;;;;;;;10.43;2.50;;;;;;;27.58;32.00;102174.72;5052998;28;20165;-39
2022/06/16 05:44:06;;;;;;;7.18;2.22;;;;;;;27.98;30.59;102175.72;5052977;28;20021;-40
2022/06/16 05:46:32;;;;;;;5.50;2.10;;;;;;;28.22;30.02;102181.19;5053087;28;20438;-41
2022/06/16 05:48:57;;;;;;;3.42;1.95;;;;;;;28.65;29.83;102188.72;5053201;28;20123;-41
2022/06/16 05:51:23;;;;;;;4.60;1.85;;;;;;;27.89;28.51;102187.97;5052972;28;20020;-41
2022/06/16 05:53:49;;;;;;;5.18;1.77;;;;;;;28.90;29.35;102169.16;5052957;28;20021;-42
2022/06/16 05:56:15;;;;;;;4.75;1.90;;;;;;;28.43;28.74;102176.63;5055791;28;20036;-42
2022/06/16 05:58:41;;;;;;;3.38;1.80;;;;;;;28.97;27.86;102173.09;5055565;28;20045;-41
2022/06/16 06:01:07;;;;;;;3.55;1.60;;;;;;;27.86;28.52;102186.63;5055365;28;20025;-41
2022/06/16 06:03:32;;;;;;;5.95;1.80;;;;;;;28.93;28.10;102179.25;5055410;28;20028;-40
2022/06/16 06:06:00;;;;;;;6.50;1.70;;;;;;;29.58;26.74;102177.13;5056590;28;20025;-41
2022/06/16 06:17:10;;;;;;;3.80;1.70;;;;;;;29.97;26.45;102172.72;5042648;28;20059;-42
2022/06/16 06:19:35;;;;;;;3.90;1.70;;;;;;;28.93;26.93;102172.06;5056941;28;20417;-41
2022/06/16 06:22:09;;;;;;;4.18;1.65;;;;;;;28.95;27.00;102169.13;5056185;28;20021;-42
2022/06/16 06:25:00;;;;;;;3.60;1.30;;;;;;;29.93;25.72;102167.19;5054880;28;20029;-42
2022/06/16 06:27:28;;;;;;;3.60;1.50;;;;;;;29.73;25.55;102173.53;5052744;28;20086;-41
2022/06/16 06:29:54;;;;;;;4.18;1.55;;;;;;;28.92;27.23;102167.03;5056421;28;20067;-42
2022/06/16 06:32:21;;;;;;;3.83;1.73;;;;;;;28.95;26.64;102171.78;5055639;28;20090;-42
2022/06/16 06:34:47;;;;;;;4.28;1.50;;;;;;;26.45;28.98;102172.97;5055728;28;20387;-42
2022/06/16 06:37:14;;;;;;;4.00;1.20;;;;;;;24.95;31.85;102167.72;5055711;28;20025;-41
2022/06/16 06:39:39;;;;;;;4.97;1.40;;;;;;;24.21;34.55;102175.31;5056196;28;20025;-41
2022/06/16 06:42:05;;;;;;;4.25;1.70;;;;;;;22.04;35.88;102169.09;5055820;28;20478;-41
2022/06/16 06:44:32;;;;;;;5.03;1.73;;;;;;;22.49;36.55;102163.19;5037448;28;20028;-42
2022/06/16 06:46:58;;;;;;;3.35;1.45;;;;;;;22.22;36.92;102167.38;5055467;28;20051;-41
2022/06/16 06:49:25;;;;;;;5.25;1.55;;;;;;;22.81;36.27;102152.22;5037523;28;20021;-41
2022/06/16 06:52:03;;;;;;;5.38;1.77;;;;;;;23.28;35.78;102172.31;5021347;28;20028;-41
2022/06/16 06:54:29;;;;;;;4.32;1.48;;;;;;;23.72;34.97;102164.59;5055581;28;20024;-41
2022/06/16 06:56:55;;;;;;;6.82;1.60;;;;;;;23.18;35.09;102162.38;5037258;28;20045;-40
2022/06/16 06:59:21;;;;;;;4.30;1.40;;;;;;;23.03;34.36;102151.59;5037791;28;20039;-40
2022/06/16 07:01:49;;;;;;;5.18;1.70;;;;;;;22.81;35.89;102164.59;5055526;28;20064;-42
2022/06/16 07:04:17;;;;;;;3.63;1.90;;;;;;;23.00;35.35;102167.88;5038146;28;20494;-40
2022/06/16 07:06:49;;;;;;;4.00;1.58;;;;;;;22.49;36.11;102160.56;5036384;28;20028;-41
2022/06/16 07:09:17;;;;;;;3.28;1.70;;;;;;;21.92;37.22;102176.16;5021175;28;20112;-42
2022/06/16 07:11:43;;;;;;;5.45;1.70;;;;;;;22.62;37.07;102175.31;5055328;28;20034;-42
2022/06/16 07:14:09;;;;;;;6.50;1.92;;;;;;;22.90;35.96;102184.25;5054966;28;20027;-43
2022/06/16 07:16:36;;;;;;;4.68;1.75;;;;;;;22.52;36.75;102183.81;5055251;28;20037;-42
2022/06/16 07:19:02;;;;;;;3.65;1.70;;;;;;;23.10;36.85;102183.84;5054934;28;20021;-41
2022/06/16 07:21:27;;;;;;;7.85;1.80;;;;;;;23.08;36.84;102188.59;5020720;28;20028;-41
2022/06/16 07:23:54;;;;;;;4.63;1.60;;;;;;;23.52;35.98;102191.44;5054996;28;20025;-41
2022/06/16 07:26:19;;;;;;;4.25;1.75;;;;;;;23.41;36.18;102193.88;5054446;28;20631;-42
2022/06/16 07:28:45;;;;;;;5.40;1.80;;;;;;;23.72;35.46;102197.06;5054985;28;20037;-41
2022/06/16 07:31:11;;;;;;;4.00;1.60;;;;;;;23.26;36.05;102201.56;5054661;28;20029;-41
2022/06/16 07:33:36;;;;;;;5.30;1.90;;;;;;;23.25;36.38;102194.69;5054809;28;20070;-42
2022/06/16 07:36:01;;;;;;;8.05;1.80;;;;;;;22.61;36.93;102186.06;5054854;28;20021;-42
2022/06/16 07:38:27;;;;;;;3.97;1.60;;;;;;;23.48;37.09;102196.41;5054395;28;20467;-42
2022/06/16 07:41:30;;;;;;;11.05;2.03;;;;;;;22.56;36.26;102199.97;5054715;28;20021;-41
2022/06/16 07:43:38;;;;;;;6.20;2.03;;;;;;;23.32;35.60;102207.72;5054185;28;20032;-43
2022/06/16 07:46:04;;;;;;;5.15;1.90;;;;;;;24.14;34.79;102211.63;5036537;28;20028;-42
2022/06/16 07:48:29;;;;;;;6.15;2.10;;;;;;;24.38;35.71;102220.94;5054503;28;20103;-42
2022/06/16 07:50:54;;;;;;;3.95;1.83;;;;;;;24.61;35.41;102222.59;5054564;28;20039;-40
2022/06/16 07:53:20;;;;;;;4.03;1.92;;;;;;;24.36;35.66;102219.59;5054148;28;20044;-42
2022/06/16 07:55:45;;;;;;;4.78;1.90;;;;;;;25.07;35.51;102223.09;5054473;28;20118;-41
2022/06/16 07:58:10;;;;;;;5.85;2.30;;;;;;;24.42;34.28;102226.53;5053920;28;20045;-44
2022/06/16 08:00:36;;;;;;;7.30;2.40;;;;;;;23.75;34.85;102230.88;5054276;28;20028;-42
2022/06/16 08:03:02;;;;;;;8.52;2.10;;;;;;;23.37;37.14;102228.91;5054594;28;20021;-41
2022/06/16 08:05:27;;;;;;;6.95;1.92;;;;;;;23.50;36.41;102238.34;5053927;28;20083;-42
2022/06/16 08:07:52;;;;;;;5.57;2.30;;;;;;;23.70;35.77;102236.06;5054789;28;20024;-41
2022/06/16 08:10:21;;;;;;;5.75;2.00;;;;;;;23.94;36.49;102235.91;5054396;28;20029;-42
2022/06/16 08:12:47;;;;;;;4.88;1.92;;;;;;;23.94;36.68;102230.63;5054029;28;20516;-42
2022/06/16 08:15:12;;;;;;;3.65;1.90;;;;;;;24.20;35.47;102231.81;5053768;28;20103;-41
2022/06/16 08:17:40;;;;;;;8.02;2.10;;;;;;;24.45;35.00;102226.88;5053879;28;20407;-43
2022/06/16 08:20:06;;;;;;;6.15;2.00;;;;;;;23.84;34.94;102218.88;5053696;28;20027;-43
2022/06/16 08:22:32;;;;;;;4.03;1.80;;;;;;;24.48;34.82;102212.38;5053943;28;20033;-42
2022/06/16 08:24:58;;;;;;;5.85;2.30;;;;;;;24.62;34.94;102218.88;5053265;28;20077;-42
2022/06/16 08:27:28;;;;;;;5.50;2.13;;;;;;;23.70;35.30;102230.78;5053291;28;20033;-42
2022/06/16 08:29:54;;;;;;;10.38;2.10;;;;;;;23.73;35.01;102237.44;5053883;28;20110;-41
2022/06/16 08:32:20;;;;;;;5.55;2.28;;;;;;;;;;5054007;28;20033;-41
2022/06/16 08:34:46;;;;;;;4.85;2.25;;;;;;;24.33;34.81;102234.88;5052489;28;20475;-42
2022/06/16 08:37:11;;;;;;;5.68;2.58;;;;;;;23.90;35.07;102240.88;5053447;28;20364;-42
2022/06/16 08:39:37;;;;;;;5.93;2.10;;;;;;;24.08;35.20;102243.28;5053340;28;20032;-41
2022/06/16 08:42:22;;;;;;;5.07;2.00;;;;;;;24.42;34.92;102234.47;5053643;28;20035;-47
2022/06/16 08:44:53;;;;;;;4.78;1.88;;;;;;;24.84;34.40;102239.25;5035034;28;20462;-41
2022/06/16 08:47:24;;;;;;;5.05;2.13;;;;;;;25.71;33.37;102232.13;5053468;28;20052;-43
2022/06/16 08:50:13;;;;;;;2.90;1.70;;;;;;;25.34;33.08;102222.31;5053340;28;20058;-42
2022/06/16 08:53:00;;;;;;;5.50;2.20;;;;;;;24.14;35.08;102236.22;5034897;28;20025;-42
2022/06/16 08:55:45;;;;;;;3.50;2.00;;;;;;;24.06;35.85;102220.78;5053339;28;20033;-42
2022/06/16 08:58:22;;;;;;;6.80;1.95;;;;;;;24.56;35.62;102238.38;5052670;28;20041;-42
2022/06/16 09:00:58;;;;;;;3.83;1.95;;;;;;;25.25;33.34;102243.13;5053284;28;20024;-42
2022/06/16 09:03:32;;;;;;;4.70;2.42;;;;;;;24.19;35.13;102241.56;5053403;28;20025;-42
2022/06/16 09:06:07;;;;;;;7.82;2.28;;;;;;;25.48;33.35;102238.56;5053823;28;20029;-41
2022/06/16 09:08:56;;;;;;;4.15;2.00;;;;;;;25.54;33.96;102242.84;5053036;28;20455;-41
2022/06/16 09:12:00;;;;;;;6.47;2.30;;;;;;;25.20;35.62;102240.44;5053337;28;20057;-41
2022/06/16 09:17:42;;;;;;;5.20;2.15;;;;;;;26.18;32.12;102237.50;5053457;28;20039;-41
2022/06/16 09:20:20;;;;;;;5.10;2.17;;;;;;;26.17;32.78;102243.06;5034997;28;20112;-41
2022/06/16 09:22:51;;;;;;;6.70;2.00;;;;;;;26.35;33.87;102247.91;5053637;28;20036;-42
2022/06/16 09:25:22;;;;;;;5.30;2.03;;;;;;;26.27;32.80;102253.72;5052586;28;20110;-42
2022/06/16 09:27:51;;;;;;;5.97;2.10;;;;;;;26.41;32.58;102241.56;5052823;28;20021;-42
2022/06/16 09:30:31;;;;;;;8.52;2.40;;;;;;;26.35;32.15;102242.63;5036739;28;20039;-42
2022/06/16 09:33:05;;;;;;;4.97;2.13;;;;;;;25.72;32.69;102229.25;5038897;28;20027;-41
2022/06/16 09:35:53;;;;;;;6.97;2.28;;;;;;;26.00;33.18;102251.16;5056718;28;20108;-43
2022/06/16 09:38:37;;;;;;;6.57;2.28;;;;;;;26.52;32.66;102258.34;5056705;28;20436;-40
2022/06/16 09:44:06;;;;;;;3.65;2.08;;;;;;;26.31;31.99;102257.44;5015579;28;20380;-42
2022/06/16 09:46:38;;;;;;;5.80;2.28;;;;;;;25.97;32.27;102259.63;5056877;28;20103;-41
2022/06/16 09:49:11;;;;;;;;;;;;;;;25.86;33.91;102264.03;5056297;28;20029;-42
2022/06/16 09:51:44;;;;;;;6.55;2.10;;;;;;;26.38;32.26;102265.16;5056735;28;19913;-41
2022/06/16 09:54:16;;;;;;;5.47;2.17;;;;;;;26.30;32.91;102267.25;5056717;28;20029;-42
2022/06/16 09:57:00;;;;;;;9.73;2.50;;;;;;;26.73;32.83;102264.56;5056229;28;20039;-41
2022/06/16 09:59:34;;;;;;;5.80;2.03;;;;;;;27.30;30.87;102268.16;5056280;28;20032;-42
2022/06/16 10:02:21;;;;;;;4.25;2.22;;;;;;;27.16;32.50;102266.03;5056170;28;20091;-42
2022/06/16 10:04:54;;;;;;;10.13;2.50;;;;;;;26.11;34.44;102266.06;5046126;28;20052;-43
2022/06/16 10:07:47;;;;;;;7.20;2.42;;;;;;;27.07;32.55;102269.41;5038112;28;20029;-43
2022/06/16 10:10:38;;;;;;;5.32;2.03;;;;;;;27.03;31.76;102274.44;5055979;28;20578;-43
2022/06/16 10:13:14;;;;;;;4.40;2.10;;;;;;;26.41;32.31;102277.88;5037772;28;20029;-41
2022/06/16 10:16:00;;;;;;;12.35;2.67;;;;;;;26.40;32.55;102268.34;5038399;28;20021;-41
2022/06/16 10:18:26;;;;;;;5.00;2.30;;;;;;;25.78;33.46;102275.06;5038182;28;20029;-42
2022/06/16 10:20:51;;;;;;;6.35;2.20;;;;;;;25.41;34.02;102270.53;5056031;28;20433;-42
2022/06/16 10:23:29;;;;;;;7.93;2.70;;;;;;;25.99;33.56;102268.91;5055921;28;20029;-39
2022/06/16 10:25:58;;;;;;;4.88;2.00;;;;;;;26.36;33.75;102259.34;5055861;28;20029;-42
2022/06/16 10:28:38;;;;;;;4.28;1.88;;;;;;;27.07;31.78;102266.75;5056500;28;20040;-42
2022/06/16 10:31:06;;;;;;;5.55;2.13;;;;;;;26.17;32.70;102262.41;5037831;28;20099;-42
2022/06/16 10:33:34;;;;;;;5.05;2.47;;;;;;;26.31;33.36;102257.44;5055728;28;20029;-42
2022/06/16 10:36:06;;;;;;;6.68;2.38;;;;;;;27.07;32.42;102258.78;5055965;28;20029;-41
2022/06/16 10:38:43;;;;;;;4.85;2.20;;;;;;;27.60;30.98;102264.72;5055678;28;20104;-41
2022/06/16 10:41:40;;;;;;;4.28;2.17;;;;;;;25.98;33.83;102269.16;5054506;28;20123;-41
2022/06/16 10:44:11;;;;;;;8.32;2.13;;;;;;;26.57;33.00;102260.25;5050954;28;20467;-42
2022/06/16 10:46:45;;;;;;;6.45;2.22;;;;;;;25.91;33.34;102271.22;5055451;28;20021;-42
2022/06/16 10:49:17;;;;;;;5.65;2.15;;;;;;;26.19;33.64;102270.09;5054839;28;20032;-42
2022/06/16 10:51:51;;;;;;;;;;;;;;;26.83;32.90;102261.13;5056062;28;20100;-41
2022/06/16 10:54:30;;;;;;;5.78;2.45;;;;;;;25.60;33.92;102269.09;5055527;28;20309;-42
2022/06/16 10:57:16;;;;;;;9.00;2.65;;;;;;;26.59;33.60;102266.09;5054976;28;20182;-42
2022/06/16 10:59:50;;;;;;;6.53;2.20;;;;;;;27.06;31.96;102273.13;5055217;28;20478;-42
2022/06/16 11:02:28;;;;;;;5.95;2.30;;;;;;;27.99;31.76;102266.84;5037275;28;20479;-43
2022/06/16 11:05:00;;;;;;;5.25;2.13;;;;;;;27.19;32.27;102267.38;5055139;28;20033;-42
2022/06/16 11:07:34;;;;;;;5.28;2.10;;;;;;;28.04;32.44;102275.59;5054444;28;20036;-42
2022/06/16 11:10:04;;;;;;;9.73;3.00;;;;;;;26.81;34.56;102282.59;5054147;28;20040;-40
2022/06/16 11:12:29;;;;;;;4.18;2.33;;;;;;;27.52;31.91;102275.88;5053892;28;20096;-41
2022/06/16 11:15:09;;;;;;;6.82;2.35;;;;;;;26.35;33.53;102285.00;5054411;28;20048;-42
2022/06/16 11:17:41;;;;;;;6.45;2.30;;;;;;;26.67;33.66;102273.53;5055361;28;20033;-42
2022/06/16 11:20:16;;;;;;;5.85;2.50;;;;;;;25.50;34.63;102278.81;5054611;28;20161;-42
2022/06/16 11:22:45;;;;;;;7.93;2.70;;;;;;;26.69;34.21;102274.06;5054417;28;20139;-41
2022/06/16 11:25:16;;;;;;;6.03;2.30;;;;;;;27.60;34.10;102278.00;5054959;28;20379;-41
2022/06/16 11:27:59;;;;;;;4.35;2.15;;;;;;;28.33;30.56;102277.66;5054658;28;20583;-41
2022/06/16 11:30:33;;;;;;;;;;;;;;;27.98;32.15;102267.91;5054917;28;20051;-43
2022/06/16 11:32:59;;;;;;;9.23;2.47;;;;;;;27.66;31.71;102275.06;5036005;28;19916;-42
2022/06/16 11:35:37;;;;;;;6.68;2.22;;;;;;;26.23;33.49;102273.81;5054258;28;20074;-42
2022/06/16 11:38:32;;;;;;;6.88;2.33;;;;;;;26.98;32.96;102267.25;5054378;28;20021;-42
2022/06/16 11:41:11;;;;;;;6.40;2.45;;;;;;;28.05;33.17;102265.75;5053907;28;20028;-42
2022/06/16 11:43:55;;;;;;;4.55;2.03;;;;;;;28.14;32.10;102272.13;5054088;28;20029;-41
2022/06/16 11:46:46;;;;;;;6.40;2.30;;;;;;;27.69;32.64;102281.72;5053657;28;20025;-41
2022/06/16 11:49:20;;;;;;;7.38;2.35;;;;;;;26.82;33.42;102267.50;5035808;28;20104;-42
2022/06/16 11:52:06;;;;;;;8.45;2.35;;;;;;;26.21;34.24;102268.78;5053422;28;20064;-41
2022/06/16 11:55:00;;;;;;;7.70;2.50;;;;;;;26.31;34.00;102265.41;5053767;28;20021;-42
2022/06/16 11:57:28;;;;;;;8.85;2.78;;;;;;;26.18;35.38;102269.31;5035658;28;20056;-42
2022/06/16 11:59:56;;;;;;;4.32;2.00;;;;;;;28.03;32.77;102270.56;5054092;28;20025;-41
2022/06/16 12:03:01;;;;;;;8.98;2.45;;;;;;;28.03;31.94;102270.56;5053656;28;20383;-42